sensor_id;sensor_type;location;lat;lon;timestamp;P1;durP1;ratioP1;P2;durP2;ratioP2
9739;SDS011;4909;42.680;26.324;2023-11-21T00:00:58;153.27;;;90.23;;
9739;SDS011;4909;42.680;26.324;2023-11-21T00:03:26;161.47;;;94.80;;
9739;SDS011;4909;42.680;26.324;2023-11-21T00:05:53;149.07;;;84.53;;
9739;SDS011;4909;42.680;26.324;2023-11-21T00:08:22;145.57;;;82.53;;
9739;SDS011;4909;42.680;26.324;2023-11-21T00:10:49;148.70;;;87.47;;
9739;SDS011;4909;42.680;26.324;2023-11-21T00:13:16;145.60;;;86.93;;
9739;SDS011;4909;42.680;26.324;2023-11-21T00:15:43;146.20;;;84.40;;
9739;SDS011;4909;42.680;26.324;2023-11-21T00:18:10;141.70;;;82.80;;
9739;SDS011;4909;42.680;26.324;2023-11-21T00:20:37;145.30;;;82.87;;
9739;SDS011;4909;42.680;26.324;2023-11-21T00:23:03;144.80;;;84.00;;
9739;SDS011;4909;42.680;26.324;2023-11-21T00:25:32;146.37;;;84.83;;
9739;SDS011;4909;42.680;26.324;2023-11-21T00:27:58;143.37;;;83.37;;
9739;SDS011;4909;42.680;26.324;2023-11-21T00:30:26;143.37;;;84.20;;
9739;SDS011;4909;42.680;26.324;2023-11-21T00:32:54;142.87;;;82.40;;
9739;SDS011;4909;42.680;26.324;2023-11-21T00:35:21;144.50;;;81.37;;
9739;SDS011;4909;42.680;26.324;2023-11-21T00:37:47;143.47;;;82.43;;
9739;SDS011;4909;42.680;26.324;2023-11-21T00:40:15;139.63;;;83.20;;
9739;SDS011;4909;42.680;26.324;2023-11-21T00:42:45;139.37;;;84.17;;
9739;SDS011;4909;42.680;26.324;2023-11-21T00:45:12;136.17;;;79.67;;
9739;SDS011;4909;42.680;26.324;2023-11-21T00:47:39;136.00;;;79.53;;
9739;SDS011;4909;42.680;26.324;2023-11-21T00:50:07;140.40;;;80.83;;
9739;SDS011;4909;42.680;26.324;2023-11-21T00:52:35;139.80;;;81.67;;
9739;SDS011;4909;42.680;26.324;2023-11-21T00:55:02;136.63;;;81.37;;
9739;SDS011;4909;42.680;26.324;2023-11-21T00:57:29;138.57;;;81.23;;
9739;SDS011;4909;42.680;26.324;2023-11-21T00:59:57;132.47;;;77.50;;
9739;SDS011;4909;42.680;26.324;2023-11-21T01:02:24;132.90;;;80.27;;
9739;SDS011;4909;42.680;26.324;2023-11-21T01:04:51;132.87;;;78.33;;
9739;SDS011;4909;42.680;26.324;2023-11-21T01:07:18;130.50;;;76.40;;
9739;SDS011;4909;42.680;26.324;2023-11-21T01:09:45;129.90;;;75.53;;
9739;SDS011;4909;42.680;26.324;2023-11-21T01:12:13;134.70;;;81.10;;
9739;SDS011;4909;42.680;26.324;2023-11-21T01:14:40;134.67;;;76.37;;
9739;SDS011;4909;42.680;26.324;2023-11-21T01:17:08;131.83;;;76.03;;
9739;SDS011;4909;42.680;26.324;2023-11-21T01:19:35;136.87;;;81.27;;
9739;SDS011;4909;42.680;26.324;2023-11-21T01:22:02;131.73;;;77.57;;
9739;SDS011;4909;42.680;26.324;2023-11-21T01:24:29;131.70;;;78.07;;
9739;SDS011;4909;42.680;26.324;2023-11-21T01:26:56;133.50;;;77.80;;
9739;SDS011;4909;42.680;26.324;2023-11-21T01:29:23;132.30;;;76.20;;
9739;SDS011;4909;42.680;26.324;2023-11-21T01:31:50;131.43;;;79.03;;
9739;SDS011;4909;42.680;26.324;2023-11-21T01:34:18;130.83;;;78.73;;
9739;SDS011;4909;42.680;26.324;2023-11-21T01:36:46;131.47;;;79.97;;
9739;SDS011;4909;42.680;26.324;2023-11-21T01:39:13;130.90;;;76.03;;
9739;SDS011;4909;42.680;26.324;2023-11-21T01:41:41;132.63;;;79.17;;
9739;SDS011;4909;42.680;26.324;2023-11-21T01:44:09;131.40;;;76.50;;
9739;SDS011;4909;42.680;26.324;2023-11-21T01:46:36;129.67;;;77.97;;
9739;SDS011;4909;42.680;26.324;2023-11-21T01:49:04;128.00;;;76.93;;
9739;SDS011;4909;42.680;26.324;2023-11-21T01:51:33;126.63;;;76.13;;
9739;SDS011;4909;42.680;26.324;2023-11-21T01:54:00;125.93;;;73.47;;
9739;SDS011;4909;42.680;26.324;2023-11-21T01:56:30;125.10;;;72.83;;
9739;SDS011;4909;42.680;26.324;2023-11-21T01:58:57;124.37;;;76.20;;
9739;SDS011;4909;42.680;26.324;2023-11-21T02:01:24;123.73;;;73.80;;
9739;SDS011;4909;42.680;26.324;2023-11-21T02:03:52;123.30;;;72.13;;
9739;SDS011;4909;42.680;26.324;2023-11-21T02:06:19;123.50;;;73.07;;
9739;SDS011;4909;42.680;26.324;2023-11-21T02:08:48;123.33;;;72.97;;
9739;SDS011;4909;42.680;26.324;2023-11-21T02:11:15;126.77;;;75.80;;
9739;SDS011;4909;42.680;26.324;2023-11-21T02:13:44;126.73;;;73.93;;
9739;SDS011;4909;42.680;26.324;2023-11-21T02:16:12;125.93;;;75.73;;
9739;SDS011;4909;42.680;26.324;2023-11-21T02:18:40;130.80;;;75.23;;
9739;SDS011;4909;42.680;26.324;2023-11-21T02:21:07;131.63;;;78.43;;
9739;SDS011;4909;42.680;26.324;2023-11-21T02:23:36;130.70;;;78.07;;
9739;SDS011;4909;42.680;26.324;2023-11-21T02:26:07;130.80;;;77.20;;
9739;SDS011;4909;42.680;26.324;2023-11-21T02:28:35;131.53;;;77.23;;
9739;SDS011;4909;42.680;26.324;2023-11-21T02:31:01;130.73;;;77.30;;
9739;SDS011;4909;42.680;26.324;2023-11-21T02:33:29;130.23;;;80.20;;
9739;SDS011;4909;42.680;26.324;2023-11-21T02:35:59;132.30;;;76.53;;
9739;SDS011;4909;42.680;26.324;2023-11-21T02:38:26;135.27;;;81.57;;
9739;SDS011;4909;42.680;26.324;2023-11-21T02:40:54;134.10;;;79.43;;
9739;SDS011;4909;42.680;26.324;2023-11-21T02:43:24;133.50;;;78.33;;
9739;SDS011;4909;42.680;26.324;2023-11-21T02:45:51;135.17;;;77.50;;
9739;SDS011;4909;42.680;26.324;2023-11-21T02:48:18;134.40;;;81.17;;
9739;SDS011;4909;42.680;26.324;2023-11-21T02:50:44;137.80;;;82.23;;
9739;SDS011;4909;42.680;26.324;2023-11-21T02:53:11;137.80;;;86.00;;
9739;SDS011;4909;42.680;26.324;2023-11-21T02:55:38;138.10;;;82.10;;
9739;SDS011;4909;42.680;26.324;2023-11-21T02:58:07;135.73;;;78.73;;
9739;SDS011;4909;42.680;26.324;2023-11-21T03:00:34;133.20;;;78.50;;
9739;SDS011;4909;42.680;26.324;2023-11-21T03:03:00;135.20;;;82.37;;
9739;SDS011;4909;42.680;26.324;2023-11-21T03:05:29;137.87;;;81.30;;
9739;SDS011;4909;42.680;26.324;2023-11-21T03:07:56;137.27;;;82.57;;
9739;SDS011;4909;42.680;26.324;2023-11-21T03:10:23;137.70;;;83.90;;
9739;SDS011;4909;42.680;26.324;2023-11-21T03:12:50;140.20;;;82.50;;
9739;SDS011;4909;42.680;26.324;2023-11-21T03:15:19;144.97;;;86.23;;
9739;SDS011;4909;42.680;26.324;2023-11-21T03:17:46;138.73;;;81.23;;
9739;SDS011;4909;42.680;26.324;2023-11-21T03:20:14;135.70;;;82.30;;
9739;SDS011;4909;42.680;26.324;2023-11-21T03:22:41;133.60;;;77.87;;
9739;SDS011;4909;42.680;26.324;2023-11-21T03:25:08;131.17;;;76.77;;
9739;SDS011;4909;42.680;26.324;2023-11-21T03:27:36;133.03;;;78.10;;
9739;SDS011;4909;42.680;26.324;2023-11-21T03:30:04;130.93;;;78.80;;
9739;SDS011;4909;42.680;26.324;2023-11-21T03:32:34;131.77;;;77.17;;
9739;SDS011;4909;42.680;26.324;2023-11-21T03:35:01;129.10;;;76.73;;
9739;SDS011;4909;42.680;26.324;2023-11-21T03:37:28;128.87;;;74.83;;
9739;SDS011;4909;42.680;26.324;2023-11-21T03:39:55;127.00;;;74.83;;
9739;SDS011;4909;42.680;26.324;2023-11-21T03:42:22;132.73;;;75.67;;
9739;SDS011;4909;42.680;26.324;2023-11-21T03:44:50;128.47;;;76.30;;
9739;SDS011;4909;42.680;26.324;2023-11-21T03:47:17;126.17;;;75.03;;
9739;SDS011;4909;42.680;26.324;2023-11-21T03:49:46;127.00;;;75.83;;
9739;SDS011;4909;42.680;26.324;2023-11-21T03:52:13;125.17;;;75.63;;
9739;SDS011;4909;42.680;26.324;2023-11-21T03:54:40;122.93;;;74.30;;
9739;SDS011;4909;42.680;26.324;2023-11-21T03:57:08;123.70;;;72.97;;
9739;SDS011;4909;42.680;26.324;2023-11-21T03:59:35;122.83;;;72.37;;
9739;SDS011;4909;42.680;26.324;2023-11-21T04:02:02;124.70;;;72.57;;
9739;SDS011;4909;42.680;26.324;2023-11-21T04:04:29;119.23;;;70.37;;
9739;SDS011;4909;42.680;26.324;2023-11-21T04:06:57;119.47;;;71.30;;
9739;SDS011;4909;42.680;26.324;2023-11-21T04:09:24;116.40;;;70.10;;
9739;SDS011;4909;42.680;26.324;2023-11-21T04:11:52;117.63;;;68.23;;
9739;SDS011;4909;42.680;26.324;2023-11-21T04:14:20;121.63;;;71.17;;
9739;SDS011;4909;42.680;26.324;2023-11-21T04:16:47;118.47;;;71.20;;
9739;SDS011;4909;42.680;26.324;2023-11-21T04:19:14;123.57;;;77.97;;
9739;SDS011;4909;42.680;26.324;2023-11-21T04:21:42;122.23;;;71.73;;
9739;SDS011;4909;42.680;26.324;2023-11-21T04:24:11;119.80;;;73.93;;
9739;SDS011;4909;42.680;26.324;2023-11-21T04:26:38;122.73;;;73.80;;
9739;SDS011;4909;42.680;26.324;2023-11-21T04:29:04;136.80;;;118.67;;
9739;SDS011;4909;42.680;26.324;2023-11-21T04:31:31;125.47;;;73.60;;
9739;SDS011;4909;42.680;26.324;2023-11-21T04:33:58;122.17;;;73.77;;
9739;SDS011;4909;42.680;26.324;2023-11-21T04:36:25;124.67;;;74.80;;
9739;SDS011;4909;42.680;26.324;2023-11-21T04:38:52;123.37;;;71.47;;
9739;SDS011;4909;42.680;26.324;2023-11-21T04:41:20;124.30;;;72.93;;
9739;SDS011;4909;42.680;26.324;2023-11-21T04:43:47;122.03;;;74.57;;
9739;SDS011;4909;42.680;26.324;2023-11-21T04:46:15;127.83;;;75.67;;
9739;SDS011;4909;42.680;26.324;2023-11-21T04:48:42;127.50;;;74.33;;
9739;SDS011;4909;42.680;26.324;2023-11-21T04:51:09;123.43;;;75.50;;
9739;SDS011;4909;42.680;26.324;2023-11-21T04:53:36;127.53;;;74.93;;
9739;SDS011;4909;42.680;26.324;2023-11-21T04:56:04;124.47;;;72.63;;
9739;SDS011;4909;42.680;26.324;2023-11-21T04:58:33;128.27;;;76.27;;
9739;SDS011;4909;42.680;26.324;2023-11-21T05:01:00;125.93;;;77.77;;
9739;SDS011;4909;42.680;26.324;2023-11-21T05:03:28;125.07;;;73.77;;
9739;SDS011;4909;42.680;26.324;2023-11-21T05:05:55;126.73;;;73.00;;
9739;SDS011;4909;42.680;26.324;2023-11-21T05:08:22;130.07;;;77.07;;
9739;SDS011;4909;42.680;26.324;2023-11-21T05:10:49;136.47;;;77.83;;
9739;SDS011;4909;42.680;26.324;2023-11-21T05:13:16;130.83;;;76.40;;
9739;SDS011;4909;42.680;26.324;2023-11-21T05:15:45;133.10;;;77.97;;
9739;SDS011;4909;42.680;26.324;2023-11-21T05:18:12;133.13;;;77.53;;
9739;SDS011;4909;42.680;26.324;2023-11-21T05:20:40;132.47;;;79.00;;
9739;SDS011;4909;42.680;26.324;2023-11-21T05:23:07;132.47;;;78.87;;
9739;SDS011;4909;42.680;26.324;2023-11-21T05:25:34;128.77;;;75.27;;
9739;SDS011;4909;42.680;26.324;2023-11-21T05:28:01;131.93;;;77.57;;
9739;SDS011;4909;42.680;26.324;2023-11-21T05:30:29;132.20;;;75.93;;
9739;SDS011;4909;42.680;26.324;2023-11-21T05:32:57;130.40;;;76.87;;
9739;SDS011;4909;42.680;26.324;2023-11-21T05:35:24;129.57;;;76.90;;
9739;SDS011;4909;42.680;26.324;2023-11-21T05:37:52;135.83;;;80.87;;
9739;SDS011;4909;42.680;26.324;2023-11-21T05:40:19;133.00;;;77.43;;
9739;SDS011;4909;42.680;26.324;2023-11-21T05:42:47;134.87;;;81.47;;
9739;SDS011;4909;42.680;26.324;2023-11-21T05:45:16;133.70;;;77.93;;
9739;SDS011;4909;42.680;26.324;2023-11-21T05:47:44;136.50;;;78.50;;
9739;SDS011;4909;42.680;26.324;2023-11-21T05:50:14;141.67;;;83.50;;
9739;SDS011;4909;42.680;26.324;2023-11-21T05:52:42;137.57;;;80.53;;
9739;SDS011;4909;42.680;26.324;2023-11-21T05:55:12;138.63;;;81.67;;
9739;SDS011;4909;42.680;26.324;2023-11-21T05:57:40;141.43;;;83.90;;
9739;SDS011;4909;42.680;26.324;2023-11-21T06:00:09;142.13;;;81.40;;
9739;SDS011;4909;42.680;26.324;2023-11-21T06:02:40;145.17;;;84.00;;
9739;SDS011;4909;42.680;26.324;2023-11-21T06:05:08;144.43;;;84.20;;
9739;SDS011;4909;42.680;26.324;2023-11-21T06:07:37;144.87;;;82.73;;
9739;SDS011;4909;42.680;26.324;2023-11-21T06:10:05;147.00;;;85.23;;
9739;SDS011;4909;42.680;26.324;2023-11-21T06:12:34;149.60;;;88.40;;
9739;SDS011;4909;42.680;26.324;2023-11-21T06:15:02;148.53;;;89.40;;
9739;SDS011;4909;42.680;26.324;2023-11-21T06:17:30;146.33;;;84.37;;
9739;SDS011;4909;42.680;26.324;2023-11-21T06:19:57;145.37;;;86.40;;
9739;SDS011;4909;42.680;26.324;2023-11-21T06:22:26;144.77;;;85.53;;
9739;SDS011;4909;42.680;26.324;2023-11-21T06:24:54;145.07;;;83.77;;
9739;SDS011;4909;42.680;26.324;2023-11-21T06:27:21;144.20;;;85.70;;
9739;SDS011;4909;42.680;26.324;2023-11-21T06:29:50;150.20;;;89.03;;
9739;SDS011;4909;42.680;26.324;2023-11-21T06:32:17;146.17;;;85.03;;
9739;SDS011;4909;42.680;26.324;2023-11-21T06:34:45;148.63;;;86.20;;
9739;SDS011;4909;42.680;26.324;2023-11-21T06:37:12;148.27;;;90.27;;
9739;SDS011;4909;42.680;26.324;2023-11-21T06:39:39;145.43;;;87.40;;
9739;SDS011;4909;42.680;26.324;2023-11-21T06:42:08;148.87;;;85.80;;
9739;SDS011;4909;42.680;26.324;2023-11-21T06:44:35;151.73;;;86.30;;
9739;SDS011;4909;42.680;26.324;2023-11-21T06:47:03;147.03;;;88.43;;
9739;SDS011;4909;42.680;26.324;2023-11-21T06:49:32;152.50;;;90.43;;
9739;SDS011;4909;42.680;26.324;2023-11-21T06:51:59;154.73;;;89.07;;
9739;SDS011;4909;42.680;26.324;2023-11-21T06:54:28;148.57;;;86.93;;
9739;SDS011;4909;42.680;26.324;2023-11-21T06:56:58;153.23;;;90.87;;
9739;SDS011;4909;42.680;26.324;2023-11-21T06:59:26;155.13;;;91.37;;
9739;SDS011;4909;42.680;26.324;2023-11-21T07:01:54;155.60;;;93.90;;
9739;SDS011;4909;42.680;26.324;2023-11-21T07:04:21;157.33;;;98.63;;
9739;SDS011;4909;42.680;26.324;2023-11-21T07:06:49;155.60;;;93.10;;
9739;SDS011;4909;42.680;26.324;2023-11-21T07:09:16;157.10;;;95.53;;
9739;SDS011;4909;42.680;26.324;2023-11-21T07:11:45;156.33;;;89.73;;
9739;SDS011;4909;42.680;26.324;2023-11-21T07:14:13;154.10;;;90.20;;
9739;SDS011;4909;42.680;26.324;2023-11-21T07:16:41;157.50;;;96.70;;
9739;SDS011;4909;42.680;26.324;2023-11-21T07:19:08;159.47;;;95.50;;
9739;SDS011;4909;42.680;26.324;2023-11-21T07:21:35;161.63;;;95.80;;
9739;SDS011;4909;42.680;26.324;2023-11-21T07:24:03;158.80;;;95.53;;
9739;SDS011;4909;42.680;26.324;2023-11-21T07:26:31;159.87;;;98.07;;
9739;SDS011;4909;42.680;26.324;2023-11-21T07:28:58;164.47;;;96.97;;
9739;SDS011;4909;42.680;26.324;2023-11-21T07:31:25;171.30;;;99.10;;
9739;SDS011;4909;42.680;26.324;2023-11-21T07:33:54;166.43;;;99.00;;
9739;SDS011;4909;42.680;26.324;2023-11-21T07:36:22;163.60;;;98.30;;
9739;SDS011;4909;42.680;26.324;2023-11-21T07:38:50;165.17;;;99.90;;
9739;SDS011;4909;42.680;26.324;2023-11-21T07:41:17;159.60;;;97.00;;
9739;SDS011;4909;42.680;26.324;2023-11-21T07:43:45;160.13;;;96.20;;
9739;SDS011;4909;42.680;26.324;2023-11-21T07:46:12;161.43;;;95.87;;
9739;SDS011;4909;42.680;26.324;2023-11-21T07:48:39;158.03;;;95.83;;
9739;SDS011;4909;42.680;26.324;2023-11-21T07:51:08;165.83;;;98.47;;
9739;SDS011;4909;42.680;26.324;2023-11-21T07:53:36;171.90;;;99.50;;
9739;SDS011;4909;42.680;26.324;2023-11-21T07:56:03;186.73;;;107.60;;
9739;SDS011;4909;42.680;26.324;2023-11-21T07:58:31;205.27;;;114.10;;
9739;SDS011;4909;42.680;26.324;2023-11-21T08:00:59;219.23;;;129.47;;
9739;SDS011;4909;42.680;26.324;2023-11-21T08:03:25;228.20;;;133.50;;
9739;SDS011;4909;42.680;26.324;2023-11-21T08:05:54;245.70;;;153.27;;
9739;SDS011;4909;42.680;26.324;2023-11-21T08:08:23;252.40;;;154.43;;
9739;SDS011;4909;42.680;26.324;2023-11-21T08:10:50;267.37;;;166.93;;
9739;SDS011;4909;42.680;26.324;2023-11-21T08:13:21;271.67;;;175.27;;
9739;SDS011;4909;42.680;26.324;2023-11-21T08:15:48;287.57;;;184.23;;
9739;SDS011;4909;42.680;26.324;2023-11-21T08:18:15;288.50;;;190.00;;
9739;SDS011;4909;42.680;26.324;2023-11-21T08:20:43;300.93;;;201.20;;
9739;SDS011;4909;42.680;26.324;2023-11-21T08:23:13;295.70;;;200.23;;
9739;SDS011;4909;42.680;26.324;2023-11-21T08:25:43;304.27;;;209.40;;
9739;SDS011;4909;42.680;26.324;2023-11-21T08:28:10;303.27;;;208.20;;
9739;SDS011;4909;42.680;26.324;2023-11-21T08:30:38;304.80;;;210.37;;
9739;SDS011;4909;42.680;26.324;2023-11-21T08:33:06;307.30;;;212.77;;
9739;SDS011;4909;42.680;26.324;2023-11-21T08:35:33;318.30;;;222.67;;
9739;SDS011;4909;42.680;26.324;2023-11-21T08:38:02;308.37;;;211.50;;
9739;SDS011;4909;42.680;26.324;2023-11-21T08:40:29;306.63;;;226.20;;
9739;SDS011;4909;42.680;26.324;2023-11-21T08:42:58;311.50;;;227.43;;
9739;SDS011;4909;42.680;26.324;2023-11-21T08:45:25;309.70;;;219.17;;
9739;SDS011;4909;42.680;26.324;2023-11-21T08:47:52;314.20;;;219.90;;
9739;SDS011;4909;42.680;26.324;2023-11-21T08:50:19;308.57;;;228.30;;
9739;SDS011;4909;42.680;26.324;2023-11-21T08:52:46;313.40;;;222.53;;
9739;SDS011;4909;42.680;26.324;2023-11-21T08:55:14;302.50;;;218.80;;
9739;SDS011;4909;42.680;26.324;2023-11-21T08:57:43;302.07;;;212.63;;
9739;SDS011;4909;42.680;26.324;2023-11-21T09:00:12;303.30;;;211.30;;
9739;SDS011;4909;42.680;26.324;2023-11-21T09:02:42;310.27;;;219.97;;
9739;SDS011;4909;42.680;26.324;2023-11-21T09:05:09;299.67;;;208.03;;
9739;SDS011;4909;42.680;26.324;2023-11-21T09:07:37;296.80;;;205.30;;
9739;SDS011;4909;42.680;26.324;2023-11-21T09:10:05;302.63;;;211.97;;
9739;SDS011;4909;42.680;26.324;2023-11-21T09:12:34;296.40;;;208.43;;
9739;SDS011;4909;42.680;26.324;2023-11-21T09:15:02;292.30;;;205.10;;
9739;SDS011;4909;42.680;26.324;2023-11-21T09:17:31;294.40;;;205.87;;
9739;SDS011;4909;42.680;26.324;2023-11-21T09:19:59;291.93;;;200.70;;
9739;SDS011;4909;42.680;26.324;2023-11-21T09:22:26;293.37;;;206.23;;
9739;SDS011;4909;42.680;26.324;2023-11-21T09:24:55;292.83;;;207.37;;
9739;SDS011;4909;42.680;26.324;2023-11-21T09:27:23;284.30;;;192.83;;
9739;SDS011;4909;42.680;26.324;2023-11-21T09:29:50;294.60;;;204.93;;
9739;SDS011;4909;42.680;26.324;2023-11-21T09:32:18;285.03;;;199.37;;
9739;SDS011;4909;42.680;26.324;2023-11-21T09:34:47;278.93;;;188.37;;
9739;SDS011;4909;42.680;26.324;2023-11-21T09:37:15;277.83;;;192.40;;
9739;SDS011;4909;42.680;26.324;2023-11-21T09:39:42;276.70;;;190.00;;
9739;SDS011;4909;42.680;26.324;2023-11-21T09:42:10;272.40;;;187.10;;
9739;SDS011;4909;42.680;26.324;2023-11-21T09:44:42;269.47;;;178.13;;
9739;SDS011;4909;42.680;26.324;2023-11-21T09:47:14;265.67;;;180.60;;
9739;SDS011;4909;42.680;26.324;2023-11-21T09:49:42;277.60;;;188.43;;
9739;SDS011;4909;42.680;26.324;2023-11-21T09:52:15;260.60;;;176.47;;
9739;SDS011;4909;42.680;26.324;2023-11-21T09:54:50;263.97;;;180.60;;
9739;SDS011;4909;42.680;26.324;2023-11-21T09:57:19;262.93;;;181.90;;
9739;SDS011;4909;42.680;26.324;2023-11-21T09:59:48;262.83;;;172.43;;
9739;SDS011;4909;42.680;26.324;2023-11-21T10:02:20;266.50;;;179.77;;
9739;SDS011;4909;42.680;26.324;2023-11-21T10:04:53;262.43;;;177.90;;
9739;SDS011;4909;42.680;26.324;2023-11-21T10:07:23;265.43;;;180.97;;
9739;SDS011;4909;42.680;26.324;2023-11-21T10:09:50;264.87;;;177.73;;
9739;SDS011;4909;42.680;26.324;2023-11-21T10:12:17;264.73;;;175.10;;
9739;SDS011;4909;42.680;26.324;2023-11-21T10:14:47;264.77;;;181.60;;
9739;SDS011;4909;42.680;26.324;2023-11-21T10:17:17;263.27;;;180.00;;
9739;SDS011;4909;42.680;26.324;2023-11-21T10:19:45;266.03;;;177.93;;
9739;SDS011;4909;42.680;26.324;2023-11-21T10:22:13;260.70;;;169.30;;
9739;SDS011;4909;42.680;26.324;2023-11-21T10:24:43;260.50;;;174.27;;
9739;SDS011;4909;42.680;26.324;2023-11-21T10:27:11;268.10;;;179.93;;
9739;SDS011;4909;42.680;26.324;2023-11-21T10:29:38;261.73;;;168.50;;
9739;SDS011;4909;42.680;26.324;2023-11-21T10:32:07;266.60;;;174.63;;
9739;SDS011;4909;42.680;26.324;2023-11-21T10:34:33;267.20;;;174.63;;
9739;SDS011;4909;42.680;26.324;2023-11-21T10:37:07;273.00;;;192.60;;
9739;SDS011;4909;42.680;26.324;2023-11-21T10:39:38;269.97;;;177.07;;
9739;SDS011;4909;42.680;26.324;2023-11-21T10:42:07;267.60;;;174.63;;
9739;SDS011;4909;42.680;26.324;2023-11-21T10:44:34;273.47;;;176.07;;
9739;SDS011;4909;42.680;26.324;2023-11-21T10:47:03;273.90;;;188.20;;
9739;SDS011;4909;42.680;26.324;2023-11-21T10:49:30;272.27;;;185.33;;
9739;SDS011;4909;42.680;26.324;2023-11-21T10:51:57;272.07;;;185.77;;
9739;SDS011;4909;42.680;26.324;2023-11-21T10:54:24;272.83;;;190.73;;
9739;SDS011;4909;42.680;26.324;2023-11-21T10:56:53;268.07;;;186.33;;
9739;SDS011;4909;42.680;26.324;2023-11-21T10:59:25;269.57;;;189.13;;
9739;SDS011;4909;42.680;26.324;2023-11-21T11:01:54;274.97;;;178.37;;
9739;SDS011;4909;42.680;26.324;2023-11-21T11:04:23;262.57;;;174.27;;
9739;SDS011;4909;42.680;26.324;2023-11-21T11:06:54;260.57;;;167.40;;
9739;SDS011;4909;42.680;26.324;2023-11-21T11:09:23;259.00;;;170.60;;
9739;SDS011;4909;42.680;26.324;2023-11-21T11:11:51;262.60;;;168.87;;
9739;SDS011;4909;42.680;26.324;2023-11-21T11:14:19;259.77;;;170.90;;
9739;SDS011;4909;42.680;26.324;2023-11-21T11:16:53;257.13;;;166.50;;
9739;SDS011;4909;42.680;26.324;2023-11-21T11:19:21;257.93;;;162.87;;
9739;SDS011;4909;42.680;26.324;2023-11-21T11:21:50;259.27;;;169.33;;
9739;SDS011;4909;42.680;26.324;2023-11-21T11:24:33;253.00;;;169.97;;
9739;SDS011;4909;42.680;26.324;2023-11-21T11:27:12;256.13;;;171.87;;
9739;SDS011;4909;42.680;26.324;2023-11-21T11:29:49;254.53;;;167.77;;
9739;SDS011;4909;42.680;26.324;2023-11-21T11:32:27;257.37;;;172.30;;
9739;SDS011;4909;42.680;26.324;2023-11-21T11:35:03;255.63;;;165.17;;
9739;SDS011;4909;42.680;26.324;2023-11-21T11:37:36;261.97;;;164.97;;
9739;SDS011;4909;42.680;26.324;2023-11-21T11:40:05;260.93;;;167.33;;
9739;SDS011;4909;42.680;26.324;2023-11-21T11:42:33;259.27;;;166.60;;
9739;SDS011;4909;42.680;26.324;2023-11-21T11:45:01;265.93;;;181.67;;
9739;SDS011;4909;42.680;26.324;2023-11-21T11:47:31;261.60;;;176.13;;
9739;SDS011;4909;42.680;26.324;2023-11-21T11:50:05;263.40;;;175.10;;
9739;SDS011;4909;42.680;26.324;2023-11-21T11:52:39;266.13;;;170.00;;
9739;SDS011;4909;42.680;26.324;2023-11-21T11:55:07;270.30;;;179.53;;
9739;SDS011;4909;42.680;26.324;2023-11-21T11:57:38;285.60;;;184.60;;
9739;SDS011;4909;42.680;26.324;2023-11-21T12:00:09;264.87;;;173.37;;
9739;SDS011;4909;42.680;26.324;2023-11-21T12:02:43;266.83;;;177.40;;
9739;SDS011;4909;42.680;26.324;2023-11-21T12:05:13;272.07;;;181.57;;
9739;SDS011;4909;42.680;26.324;2023-11-21T12:07:42;271.37;;;178.60;;
9739;SDS011;4909;42.680;26.324;2023-11-21T12:10:11;269.87;;;175.40;;
9739;SDS011;4909;42.680;26.324;2023-11-21T12:12:43;269.13;;;179.30;;
9739;SDS011;4909;42.680;26.324;2023-11-21T12:15:11;266.33;;;174.10;;
9739;SDS011;4909;42.680;26.324;2023-11-21T12:17:39;270.73;;;181.90;;
9739;SDS011;4909;42.680;26.324;2023-11-21T12:20:10;269.07;;;180.80;;
9739;SDS011;4909;42.680;26.324;2023-11-21T12:22:44;271.97;;;173.43;;
9739;SDS011;4909;42.680;26.324;2023-11-21T12:25:14;269.93;;;180.93;;
9739;SDS011;4909;42.680;26.324;2023-11-21T12:27:43;265.83;;;177.57;;
9739;SDS011;4909;42.680;26.324;2023-11-21T12:30:12;263.50;;;179.87;;
9739;SDS011;4909;42.680;26.324;2023-11-21T12:32:41;261.70;;;170.03;;
9739;SDS011;4909;42.680;26.324;2023-11-21T12:35:11;262.90;;;175.97;;
9739;SDS011;4909;42.680;26.324;2023-11-21T12:37:38;265.77;;;174.90;;
9739;SDS011;4909;42.680;26.324;2023-11-21T12:40:08;267.90;;;175.50;;
9739;SDS011;4909;42.680;26.324;2023-11-21T12:42:37;271.93;;;183.77;;
9739;SDS011;4909;42.680;26.324;2023-11-21T12:45:08;264.73;;;174.77;;
9739;SDS011;4909;42.680;26.324;2023-11-21T12:47:41;260.67;;;166.67;;
9739;SDS011;4909;42.680;26.324;2023-11-21T12:50:08;264.57;;;173.70;;
9739;SDS011;4909;42.680;26.324;2023-11-21T12:52:40;265.77;;;175.13;;
9739;SDS011;4909;42.680;26.324;2023-11-21T12:55:09;269.77;;;172.70;;
9739;SDS011;4909;42.680;26.324;2023-11-21T12:57:41;270.30;;;179.03;;
9739;SDS011;4909;42.680;26.324;2023-11-21T13:00:09;266.27;;;173.87;;
9739;SDS011;4909;42.680;26.324;2023-11-21T13:02:41;266.70;;;179.20;;
9739;SDS011;4909;42.680;26.324;2023-11-21T13:05:08;266.93;;;172.50;;
9739;SDS011;4909;42.680;26.324;2023-11-21T13:07:48;266.27;;;170.50;;
9739;SDS011;4909;42.680;26.324;2023-11-21T13:10:19;266.63;;;176.47;;
9739;SDS011;4909;42.680;26.324;2023-11-21T13:12:51;269.50;;;175.40;;
9739;SDS011;4909;42.680;26.324;2023-11-21T13:15:20;267.37;;;178.07;;
9739;SDS011;4909;42.680;26.324;2023-11-21T13:17:47;263.73;;;165.60;;
9739;SDS011;4909;42.680;26.324;2023-11-21T13:20:15;263.03;;;173.93;;
9739;SDS011;4909;42.680;26.324;2023-11-21T13:22:50;264.77;;;172.10;;
9739;SDS011;4909;42.680;26.324;2023-11-21T13:25:19;262.57;;;167.53;;
9739;SDS011;4909;42.680;26.324;2023-11-21T13:27:47;264.53;;;167.17;;
9739;SDS011;4909;42.680;26.324;2023-11-21T13:30:15;264.50;;;171.63;;
9739;SDS011;4909;42.680;26.324;2023-11-21T13:32:43;264.27;;;165.60;;
9739;SDS011;4909;42.680;26.324;2023-11-21T13:35:11;265.53;;;164.63;;
9739;SDS011;4909;42.680;26.324;2023-11-21T13:37:50;264.70;;;172.53;;
9739;SDS011;4909;42.680;26.324;2023-11-21T13:40:21;262.53;;;167.60;;
9739;SDS011;4909;42.680;26.324;2023-11-21T13:42:51;256.93;;;157.90;;
9739;SDS011;4909;42.680;26.324;2023-11-21T13:45:20;265.93;;;183.63;;
9739;SDS011;4909;42.680;26.324;2023-11-21T13:47:49;255.80;;;168.20;;
9739;SDS011;4909;42.680;26.324;2023-11-21T13:50:23;258.87;;;154.17;;
9739;SDS011;4909;42.680;26.324;2023-11-21T13:52:55;256.63;;;158.47;;
9739;SDS011;4909;42.680;26.324;2023-11-21T13:55:23;262.57;;;166.47;;
9739;SDS011;4909;42.680;26.324;2023-11-21T13:57:50;261.27;;;160.80;;
9739;SDS011;4909;42.680;26.324;2023-11-21T14:00:18;262.10;;;169.33;;
9739;SDS011;4909;42.680;26.324;2023-11-21T14:03:08;263.80;;;169.10;;
9739;SDS011;4909;42.680;26.324;2023-11-21T14:05:42;261.30;;;159.30;;
9739;SDS011;4909;42.680;26.324;2023-11-21T14:08:13;255.63;;;158.03;;
9739;SDS011;4909;42.680;26.324;2023-11-21T14:10:42;257.70;;;161.03;;
9739;SDS011;4909;42.680;26.324;2023-11-21T14:13:10;254.67;;;159.13;;
9739;SDS011;4909;42.680;26.324;2023-11-21T14:15:38;256.67;;;160.43;;
9739;SDS011;4909;42.680;26.324;2023-11-21T14:18:10;260.87;;;164.63;;
9739;SDS011;4909;42.680;26.324;2023-11-21T14:20:39;258.20;;;166.37;;
9739;SDS011;4909;42.680;26.324;2023-11-21T14:23:07;259.20;;;159.83;;